Terminal Aerodrome Forecast
Issued by NWS Grand Junction, CO

Home | Current Version | Previous Version | Text Only | Print | Product List | Glossary On
Versions: 1 2 3 4 5 6 7 8 9 10 11 12
000
FTUS45 KGJT 271728
TAFGJT
TAF
KGJT 271728Z 2718/2818 31010KT P6SM VCTS SCT050CB BKN070 OVC100
      TEMPO 2718/2720 -TSRAGS BKN040CB
     FM272000 29018G28KT P6SM VCSH FEW060 BKN100
     FM280100 30009KT P6SM BKN100
     FM280600 31005KT P6SM SCT110=

USA.gov is the U.S. government's official web portal to all federal, state and local government web resources and services.